METAR stanice u blizini

 

LYBE - Beograd / Surčin, Srbija
Ažurirano: 16/10/2019 21:00
Vedro
Vedro
 Pravac vetra IJI
Vetar: IJI 6 km/h
Temperatura: 20°C
Tačka rose: 6°C
Vlažnost: 40%
Pritisak: 1017 hPa
Pregled: Vedro
Vidljivost: greater than 10 km
2019/10/16 19:00 LYBE 161900Z 12003KT CAVOK 20/06 Q1017 NOSIG
LYBT - Beograd / Batajnica, Srbija
Ažurirano: 16/10/2019 21:00
Vedro
Vedro
 Pravac vetra SSZ
Vetar: SSZ 6 km/h
Temperatura: 13°C
Tačka rose: 6°C
Vlažnost: 63%
Pritisak: 1016 hPa
Pregled: Vedro
Vidljivost: greater than 10 km
2019/10/16 19:00 LYBT 161900Z 33003KT CAVOK 13/06 Q1016 NOSIG
LYVR - Vršac, Srbija
Ažurirano: 16/10/2019 18:00
NOT Current
Vedro
Vedro
 Pravac vetra varies
Vetar: varies 4 km/h
Temperatura: 21°C
Tačka rose: 6°C
Vlažnost: 38%
Pritisak: 1015 hPa
Pregled: Vedro
Vidljivost: greater than 10 km
2019/10/16 16:00 LYVR 161600Z VRB02KT CAVOK 21/06 Q1015 NOSIG
 
LYKV - Lađevci, Srbija
Ažurirano: 16/10/2019 21:00
Vedro
Vedro
 Pravac vetra IJI
Vetar: IJI 7 km/h
Temperatura: 14°C
Tačka rose: 10°C
Vlažnost: 77%
Pritisak: 1017 hPa
Pregled: Vedro
Vidljivost: greater than 10 km
2019/10/16 19:00 LYKV 161900Z 12004KT CAVOK 14/10 Q1017 NOSIG
LYNI - Niš, Srbija
Ažurirano: 16/10/2019 21:00
Vedro
Vedro
 Pravac vetra varies
Vetar: varies 2 km/h
Temperatura: 15°C
Tačka rose: 8°C
Vlažnost: 63%
Pritisak: 1017 hPa
Pregled: Vedro
Vidljivost: greater than 10 km
2019/10/16 19:00 LYNI 161900Z VRB01KT CAVOK 15/08 Q1017 NOSIG
BKPR - Priština, Srbija
Ažurirano: 16/10/2019 21:30
Vedro
Vedro
 Pravac vetra varies
Vetar: varies 4 km/h
Temperatura: 12°C
Tačka rose: 6°C
Vlažnost: 67%
Pritisak: 1019 hPa
Pregled: Vedro
Vidljivost: greater than 10 km
2019/10/16 19:30 BKPR 161930Z VRB02KT CAVOK 12/06 Q1019 NOSIG
 
LHPP - Pecs / Pogany, Hungary
Ažurirano: 16/10/2019 19:15
NOT Current
Vedro
Vedro
 Pravac vetra SI
Vetar: SI 11 km/h
Temperatura: 16°C
Tačka rose: 12°C
Vlažnost: 77%
Pritisak: 1018 hPa
Pregled: Vedro
Vidljivost: greater than 10 km
2019/10/16 17:15 LHPP 161715Z 04006KT CAVOK 16/12 Q1018
LHUD - Szeged, Hungary
Ažurirano: 04/07/2019 01:45
NOT Current
Vedro
Vedro
 Pravac vetra S
Vetar: S 7 km/h
Temperatura: 18°C
Tačka rose: 13°C
Vlažnost: 73%
Pritisak: 1019 hPa
Pregled: Vedro
Vidljivost: greater than 10 km
2019/07/03 23:45 LHUD 032345Z 35004KT CAVOK 18/13 Q1019
LRTR - Timisoara, Romania
Ažurirano: 16/10/2019 21:00
Vedro
Vedro
 Pravac vetra SI
Vetar: SI 6 km/h
Temperatura: 14°C
Tačka rose: 7°C
Vlažnost: 63%
Pritisak: 1017 hPa
Pregled: Vedro
Vidljivost: greater than 10 km
2019/10/16 19:00 LRTR 161900Z 05003KT 340V070 CAVOK 14/07 Q1017
 
LRCV - Craiova, Romania
Ažurirano: 16/10/2019 21:00
Vedro
Vedro
 Pravac vetra IJI
Vetar: IJI 9 km/h
Temperatura: 13°C
Tačka rose: 11°C
Vlažnost: 88%
Pritisak: 1018 hPa
Oblaci: Vedro
Vidljivost: 10 km
2019/10/16 19:00 LRCV 161900Z AUTO 11005KT 9999 NCD 13/11 Q1018
LBSF - Sofia, Bulgaria
Ažurirano: 16/10/2019 21:00
Vedro
Vedro
 Pravac vetra JJI
Vetar: JJI 6 km/h
Temperatura: 14°C
Tačka rose: 6°C
Vlažnost: 59%
Pritisak: 1018 hPa
Pregled: Vedro
Vidljivost: greater than 10 km
2019/10/16 19:00 LBSF 161900Z 15003KT CAVOK 14/06 Q1018 NOSIG
LWSK - Skoplje, Makedonija
Ažurirano: 16/10/2019 21:30
Vedro
Vedro
 Pravac vetra ISI
Vetar: ISI 4 km/h
Temperatura: 15°C
Tačka rose: 10°C
Vlažnost: 72%
Pritisak: 1017 hPa
Pregled: Vedro
Vidljivost: greater than 10 km
2019/10/16 19:30 LWSK 161930Z 06002KT CAVOK 15/10 Q1017 NOSIG
 
LYPG - Podgorica, Crna Gora
Ažurirano: 16/10/2019 21:00

 Pravac vetra SSZ
Vetar: SSZ 7 km/h
Temperatura: 17°C
Tačka rose: 13°C
Vlažnost: 77%
Pritisak: 1017 hPa
Vidljivost: 8 km
2019/10/16 19:00 LYPG 161900Z 33004KT 8000 17/13 Q1017 NOSIG
LQSA - Sarajevo, Bosna i Hercegovina
Ažurirano: 16/10/2019 21:00
Vedro
Vedro
 Pravac vetra varies
Vetar: varies 2 km/h
Temperatura: 12°C
Tačka rose: 11°C
Vlažnost: 94%
Pritisak: 1019 hPa
Pregled: Vedro
Vidljivost: greater than 10 km
2019/10/16 19:00 LQSA 161900Z VRB01KT CAVOK 12/11 Q1019 NOSIG
LDOS - Osijek, Hrvatksa
Ažurirano: 16/10/2019 21:00
Vedro
Vedro
 Pravac vetra S
Vetar: S 11 km/h
Temperatura: 15°C
Tačka rose: 12°C
Vlažnost: 82%
Pritisak: 1017 hPa
Pregled: Vedro
Vidljivost: greater than 10 km
2019/10/16 19:00 LDOS 161900Z 35006KT CAVOK 15/12 Q1017